createdAt,value
2022-10-29T00:01:05.667Z,12.80
2022-10-29T00:03:36.375Z,13.58
2022-10-29T00:06:07.778Z,12.80
2022-10-29T00:08:37.598Z,13.88
2022-10-29T00:11:15.724Z,13.80
2022-10-29T00:13:43.909Z,13.75
2022-10-29T00:16:15.533Z,12.65
2022-10-29T00:18:44.106Z,14.28
2022-10-29T00:21:18.644Z,13.88
2022-10-29T00:23:47.162Z,13.08
2022-10-29T00:26:15.700Z,12.95
2022-10-29T00:28:43.467Z,12.98
2022-10-29T00:31:18.408Z,12.43
2022-10-29T00:33:46.444Z,12.23
2022-10-29T00:36:19.014Z,14.53
2022-10-29T00:38:46.734Z,14.03
2022-10-29T00:41:18.844Z,12.53
2022-10-29T00:43:50.641Z,11.70
2022-10-29T00:46:34.002Z,11.15
2022-10-29T00:49:02.702Z,10.50
2022-10-29T00:51:32.436Z,10.23
2022-10-29T00:54:07.904Z,10.25
2022-10-29T00:56:40.777Z,9.48
2022-10-29T00:59:09.750Z,9.73
2022-10-29T01:01:39.233Z,9.70
2022-10-29T01:04:07.806Z,9.75
2022-10-29T01:06:35.615Z,10.13
2022-10-29T01:09:03.585Z,10.40
2022-10-29T01:12:15.833Z,10.18
2022-10-29T01:15:06.280Z,9.15
2022-10-29T01:17:58.994Z,9.48
2022-10-29T01:20:43.949Z,11.33
2022-10-29T01:23:19.886Z,11.03
2022-10-29T01:26:29.089Z,11.43
2022-10-29T01:29:38.015Z,10.53
2022-10-29T01:32:16.031Z,10.45
2022-10-29T01:34:51.884Z,9.30
2022-10-29T01:37:54.904Z,9.38
2022-10-29T01:40:42.962Z,9.20
2022-10-29T01:43:16.257Z,8.80
2022-10-29T01:45:52.329Z,8.10
2022-10-29T01:48:29.028Z,8.48
2022-10-29T01:50:58.039Z,8.38
2022-10-29T01:53:27.313Z,8.43
2022-10-29T01:55:54.838Z,10.08
2022-10-29T01:58:25.157Z,10.90
2022-10-29T02:01:10.588Z,12.45
2022-10-29T02:03:54.148Z,10.50
2022-10-29T02:07:00.270Z,8.68
2022-10-29T02:09:48.378Z,8.58
2022-10-29T02:12:21.606Z,7.80
2022-10-29T02:15:00.624Z,7.72
2022-10-29T02:17:31.748Z,6.90
2022-10-29T02:20:08.193Z,7.42
2022-10-29T02:22:36.048Z,7.00
2022-10-29T02:25:05.574Z,7.22
2022-10-29T02:27:33.256Z,6.78
2022-10-29T02:30:00.863Z,6.95
2022-10-29T02:32:28.350Z,7.08
2022-10-29T02:34:56.056Z,7.80
2022-10-29T02:37:23.691Z,8.03
2022-10-29T02:39:51.393Z,8.63
2022-10-29T02:42:18.893Z,9.30
2022-10-29T02:44:46.439Z,9.40
2022-10-29T02:47:14.133Z,9.40
2022-10-29T02:49:41.700Z,8.45
2022-10-29T02:52:09.328Z,7.65
2022-10-29T02:54:38.692Z,8.00
2022-10-29T02:57:06.912Z,7.72
2022-10-29T02:59:34.534Z,7.50
2022-10-29T03:02:02.319Z,9.15
2022-10-29T03:04:29.971Z,7.20
2022-10-29T03:06:57.681Z,6.75
2022-10-29T03:09:25.337Z,6.87
2022-10-29T03:11:53.176Z,6.80
2022-10-29T03:14:20.928Z,6.78
2022-10-29T03:16:48.512Z,7.28
2022-10-29T03:19:16.103Z,6.90
2022-10-29T03:21:43.862Z,6.40
2022-10-29T03:24:11.712Z,6.70
2022-10-29T03:26:39.396Z,7.03
2022-10-29T03:29:07.244Z,6.85
2022-10-29T03:31:35.353Z,6.45
2022-10-29T03:34:03.030Z,6.33
2022-10-29T03:36:30.762Z,6.70
2022-10-29T03:38:58.231Z,6.22
2022-10-29T03:41:25.960Z,6.20
2022-10-29T03:43:53.694Z,7.53
2022-10-29T03:46:21.403Z,7.33
2022-10-29T03:48:50.046Z,6.25
2022-10-29T03:51:17.614Z,6.90
2022-10-29T03:53:45.392Z,6.35
2022-10-29T03:56:13.182Z,7.65
2022-10-29T03:58:41.068Z,5.90
2022-10-29T04:01:10.055Z,6.15
2022-10-29T04:03:41.328Z,6.05
2022-10-29T04:06:15.328Z,7.00
2022-10-29T04:08:43.023Z,6.28
2022-10-29T04:11:14.104Z,6.40
2022-10-29T04:13:41.852Z,5.90
2022-10-29T04:16:09.508Z,6.47
2022-10-29T04:18:38.318Z,6.25
2022-10-29T04:23:08.067Z,7.03
2022-10-29T04:26:55.404Z,6.55
2022-10-29T04:28:42.994Z,6.65
2022-10-29T04:31:06.864Z,6.30
2022-10-29T04:33:34.713Z,6.30
2022-10-29T04:36:03.151Z,6.67
2022-10-29T04:38:30.704Z,7.10
2022-10-29T04:40:59.272Z,8.13
2022-10-29T04:43:27.995Z,8.50
2022-10-29T04:45:57.950Z,8.88
2022-10-29T04:48:27.308Z,8.10
2022-10-29T04:50:55.157Z,7.62
2022-10-29T04:53:23.114Z,7.35
2022-10-29T04:55:50.714Z,6.55
2022-10-29T04:58:19.751Z,7.20
2022-10-29T05:00:47.785Z,7.58
2022-10-29T05:03:15.735Z,7.15
2022-10-29T05:05:43.401Z,8.00
2022-10-29T05:08:11.723Z,8.28
2022-10-29T05:10:40.167Z,7.75
2022-10-29T05:13:11.618Z,7.58
2022-10-29T05:15:40.372Z,8.00
2022-10-29T05:18:09.501Z,7.12
2022-10-29T05:20:37.205Z,9.70
2022-10-29T05:23:07.487Z,12.37
2022-10-29T05:25:38.435Z,16.15
2022-10-29T05:28:11.716Z,17.52
2022-10-29T05:30:40.991Z,19.52
2022-10-29T05:33:09.643Z,24.18
2022-10-29T05:35:38.214Z,25.45
2022-10-29T05:38:06.362Z,17.65
2022-10-29T05:40:34.143Z,15.90
2022-10-29T05:43:02.014Z,11.05
2022-10-29T05:45:29.829Z,10.40
2022-10-29T05:48:01.081Z,9.05
2022-10-29T05:50:30.096Z,9.18
2022-10-29T05:53:01.349Z,8.75
2022-10-29T05:55:30.306Z,8.68
2022-10-29T05:58:04.126Z,12.68
2022-10-29T06:00:35.372Z,10.82
2022-10-29T06:03:03.369Z,12.55
2022-10-29T06:05:31.174Z,9.68
2022-10-29T06:08:00.712Z,7.00
2022-10-29T06:10:29.441Z,7.03
2022-10-29T06:12:57.086Z,7.97
2022-10-29T06:15:25.066Z,7.85
2022-10-29T06:17:52.700Z,11.12
2022-10-29T06:20:21.680Z,6.85
2022-10-29T06:22:58.070Z,6.08
2022-10-29T06:25:26.966Z,6.17
2022-10-29T06:27:59.944Z,6.60
2022-10-29T06:30:28.851Z,7.30
2022-10-29T06:32:56.905Z,7.17
2022-10-29T06:35:27.176Z,6.67
2022-10-29T06:37:56.271Z,6.15
2022-10-29T06:40:25.310Z,6.92
2022-10-29T06:43:05.230Z,6.70
2022-10-29T06:45:34.472Z,6.10
2022-10-29T06:48:04.923Z,6.12
2022-10-29T06:50:34.747Z,7.62
2022-10-29T06:53:05.920Z,6.28
2022-10-29T06:55:34.537Z,6.60
2022-10-29T06:58:09.266Z,6.03
2022-10-29T07:00:37.060Z,5.60
2022-10-29T07:03:05.076Z,5.97
2022-10-29T07:05:33.399Z,7.17
2022-10-29T07:08:01.998Z,7.55
2022-10-29T07:10:31.780Z,6.67
2022-10-29T07:12:59.631Z,7.35
2022-10-29T07:15:30.818Z,6.65
2022-10-29T07:18:04.399Z,7.03
2022-10-29T07:20:35.906Z,6.97
2022-10-29T07:23:04.157Z,7.22
2022-10-29T07:25:32.572Z,6.85
2022-10-29T07:28:19.912Z,6.70
2022-10-29T07:30:47.961Z,7.03
2022-10-29T07:33:16.212Z,7.70
2022-10-29T07:35:44.312Z,8.85
2022-10-29T07:38:12.838Z,8.18
2022-10-29T07:40:49.719Z,8.18
2022-10-29T07:43:18.854Z,7.92
2022-10-29T07:45:49.488Z,8.80
2022-10-29T07:48:19.022Z,10.00
2022-10-29T07:50:47.868Z,10.13
2022-10-29T07:53:15.645Z,34.80
2022-10-29T07:55:43.296Z,15.15
2022-10-29T07:58:12.412Z,10.35
2022-10-29T08:00:41.816Z,11.48
2022-10-29T08:03:11.597Z,12.75
2022-10-29T08:05:42.295Z,11.08
2022-10-29T08:08:09.266Z,11.95
2022-10-29T08:10:37.156Z,11.65
2022-10-29T08:13:06.168Z,13.35
2022-10-29T08:15:34.919Z,11.10
2022-10-29T08:18:08.504Z,10.98
2022-10-29T08:20:36.211Z,10.93
2022-10-29T08:23:03.837Z,10.72
2022-10-29T08:25:31.431Z,9.95
2022-10-29T08:28:02.380Z,11.05
2022-10-29T08:30:31.169Z,11.93
2022-10-29T08:32:59.507Z,12.30
2022-10-29T08:35:28.275Z,12.75
2022-10-29T08:37:56.042Z,12.50
2022-10-29T08:40:38.083Z,12.40
2022-10-29T08:43:44.589Z,13.40
2022-10-29T08:46:37.358Z,12.82
2022-10-29T08:49:15.880Z,11.73
2022-10-29T08:51:48.783Z,12.33
2022-10-29T08:54:30.203Z,11.90
2022-10-29T08:56:57.255Z,12.78
2022-10-29T08:59:29.202Z,12.40
2022-10-29T09:01:56.901Z,12.10
2022-10-29T09:04:36.544Z,12.53
2022-10-29T09:07:33.977Z,13.30
2022-10-29T09:10:22.059Z,12.78
2022-10-29T09:13:21.260Z,12.70
2022-10-29T09:16:12.375Z,12.53
2022-10-29T09:18:57.154Z,10.08
2022-10-29T09:21:45.307Z,10.18
2022-10-29T09:24:45.385Z,9.70
2022-10-29T09:27:23.963Z,9.65
2022-10-29T09:30:02.752Z,9.90
2022-10-29T09:32:35.773Z,9.78
2022-10-29T09:35:17.657Z,10.00
2022-10-29T09:37:54.760Z,9.53
2022-10-29T09:40:35.925Z,9.23
2022-10-29T09:43:17.687Z,10.72
2022-10-29T09:45:50.696Z,9.80
2022-10-29T09:48:23.846Z,11.20
2022-10-29T09:51:21.373Z,9.75
2022-10-29T09:53:51.206Z,11.40
2022-10-29T09:56:19.104Z,10.63
2022-10-29T09:58:52.104Z,10.65
2022-10-29T10:01:19.840Z,9.98
2022-10-29T10:03:52.587Z,9.98
2022-10-29T10:06:20.309Z,9.50
2022-10-29T10:09:05.419Z,9.05
2022-10-29T10:11:42.659Z,10.55
2022-10-29T10:14:24.664Z,9.78
2022-10-29T10:17:00.458Z,9.58
2022-10-29T10:19:31.872Z,9.63
2022-10-29T10:22:03.206Z,9.38
2022-10-29T10:24:36.917Z,10.10
2022-10-29T10:27:27.731Z,9.40
2022-10-29T10:30:09.785Z,9.13
2022-10-29T10:32:37.308Z,9.78
2022-10-29T10:35:25.932Z,12.50
2022-10-29T10:37:55.133Z,10.15
2022-10-29T10:40:24.763Z,9.83
2022-10-29T10:42:54.862Z,9.40
2022-10-29T10:45:30.874Z,9.33
2022-10-29T10:47:59.381Z,9.28
2022-10-29T10:50:30.856Z,9.50
2022-10-29T10:53:02.117Z,8.88
2022-10-29T10:55:38.617Z,8.10
2022-10-29T10:58:26.405Z,8.40
2022-10-29T11:01:02.934Z,8.13
2022-10-29T11:03:38.844Z,8.20
2022-10-29T11:06:26.082Z,8.28
2022-10-29T11:09:05.142Z,8.50
2022-10-29T11:11:37.566Z,9.05
2022-10-29T11:14:28.291Z,8.98
2022-10-29T11:16:59.405Z,8.00
2022-10-29T11:19:36.795Z,8.73
2022-10-29T11:22:22.099Z,8.83
2022-10-29T11:25:05.975Z,8.50
2022-10-29T11:27:44.877Z,8.35
2022-10-29T11:30:18.781Z,8.43
2022-10-29T11:35:46.589Z,8.03
2022-10-29T11:38:43.808Z,9.00
2022-10-29T11:41:42.642Z,8.15
2022-10-29T11:44:13.343Z,8.10
2022-10-29T11:46:53.220Z,8.43
2022-10-29T11:49:43.824Z,7.83
2022-10-29T11:52:21.050Z,7.72
2022-10-29T11:55:19.580Z,7.67
2022-10-29T11:57:53.213Z,7.80
2022-10-29T12:00:24.029Z,8.30
2022-10-29T12:03:08.719Z,7.42
2022-10-29T12:05:56.029Z,7.70
2022-10-29T12:08:40.863Z,8.03
2022-10-29T12:11:42.983Z,8.68
2022-10-29T12:14:39.685Z,10.65
2022-10-29T12:17:24.966Z,8.30
2022-10-29T12:20:04.054Z,8.30
2022-10-29T12:22:40.084Z,9.15
2022-10-29T12:25:27.851Z,8.08
2022-10-29T12:28:14.656Z,8.05
2022-10-29T12:30:47.766Z,7.95
2022-10-29T12:33:26.303Z,7.67
2022-10-29T12:38:40.449Z,7.70
2022-10-29T12:41:25.399Z,7.58
2022-10-29T12:44:01.464Z,7.67
2022-10-29T12:46:46.566Z,8.73
2022-10-29T12:49:32.264Z,8.00
2022-10-29T12:52:34.848Z,7.58
2022-10-29T12:55:06.510Z,8.38
2022-10-29T12:57:35.598Z,7.05
2022-10-29T13:00:33.169Z,7.83
2022-10-29T13:03:01.236Z,8.90
2022-10-29T13:05:37.145Z,8.00
2022-10-29T13:08:10.423Z,9.83
2022-10-29T13:10:51.316Z,8.10
2022-10-29T13:13:25.126Z,8.28
2022-10-29T13:16:19.043Z,8.80
2022-10-29T13:18:52.702Z,8.85
2022-10-29T13:22:00.354Z,9.05
2022-10-29T13:24:30.473Z,7.60
2022-10-29T13:27:21.725Z,8.75
2022-10-29T13:30:15.721Z,7.78
2022-10-29T13:32:43.752Z,8.75
2022-10-29T13:35:29.432Z,9.38
2022-10-29T13:38:15.152Z,8.98
2022-10-29T13:41:08.946Z,9.15
2022-10-29T13:43:39.595Z,10.50
2022-10-29T13:46:22.914Z,10.10
2022-10-29T13:48:53.153Z,10.82
2022-10-29T13:51:29.529Z,15.55
2022-10-29T13:54:18.466Z,33.50
2022-10-29T13:56:51.771Z,127.70
2022-10-29T13:59:37.105Z,91.12
2022-10-29T14:02:25.275Z,18.87
2022-10-29T14:04:58.283Z,12.88
2022-10-29T14:07:44.806Z,12.28
2022-10-29T14:10:41.055Z,10.28
2022-10-29T14:13:32.618Z,10.68
2022-10-29T14:16:08.496Z,10.85
2022-10-29T14:18:44.974Z,11.48
2022-10-29T14:21:25.439Z,11.97
2022-10-29T14:24:08.714Z,12.45
2022-10-29T14:26:40.126Z,12.58
2022-10-29T14:29:24.665Z,12.80
2022-10-29T14:32:22.815Z,13.43
2022-10-29T14:34:51.762Z,31.30
2022-10-29T14:37:30.764Z,18.00
2022-10-29T14:40:02.502Z,19.40
2022-10-29T14:42:38.944Z,23.35
2022-10-29T14:45:18.549Z,20.70
2022-10-29T14:47:54.643Z,23.42
2022-10-29T14:53:11.314Z,29.57
2022-10-29T14:55:43.946Z,21.33
2022-10-29T14:58:15.896Z,25.12
2022-10-29T15:00:59.389Z,30.82
2022-10-29T15:03:30.607Z,34.78
2022-10-29T15:06:21.455Z,34.05
2022-10-29T15:09:00.750Z,33.73
2022-10-29T15:11:41.838Z,35.13
2022-10-29T15:14:38.209Z,54.58
2022-10-29T15:19:45.826Z,50.10
2022-10-29T15:22:22.865Z,46.58
2022-10-29T15:24:52.335Z,166.75
2022-10-29T15:27:21.422Z,173.00
2022-10-29T15:29:49.601Z,167.30
2022-10-29T15:32:18.415Z,148.10
2022-10-29T15:34:56.126Z,134.50
2022-10-29T15:37:34.672Z,117.05
2022-10-29T15:40:11.615Z,100.07
2022-10-29T15:42:39.627Z,90.72
2022-10-29T15:45:23.825Z,85.83
2022-10-29T15:48:02.258Z,74.22
2022-10-29T15:50:42.568Z,70.00
2022-10-29T15:53:15.048Z,64.03
2022-10-29T15:55:44.970Z,66.12
2022-10-29T15:58:17.610Z,67.22
2022-10-29T16:00:45.680Z,60.88
2022-10-29T16:03:23.073Z,59.73
2022-10-29T16:05:58.613Z,59.55
2022-10-29T16:08:46.487Z,54.77
2022-10-29T16:11:19.520Z,55.63
2022-10-29T16:13:54.643Z,53.28
2022-10-29T16:16:22.903Z,50.30
2022-10-29T16:18:51.495Z,46.63
2022-10-29T16:21:22.727Z,44.85
2022-10-29T16:23:51.329Z,44.60
2022-10-29T16:26:22.996Z,43.02
2022-10-29T16:28:54.118Z,39.50
2022-10-29T16:31:26.556Z,39.78
2022-10-29T16:33:57.796Z,41.53
2022-10-29T16:36:25.663Z,40.45
2022-10-29T16:38:53.516Z,40.52
2022-10-29T16:41:21.283Z,41.40
2022-10-29T16:43:49.113Z,41.73
2022-10-29T16:46:16.808Z,46.08
2022-10-29T16:48:45.106Z,48.95
2022-10-29T16:51:12.901Z,48.70
2022-10-29T16:53:40.821Z,55.83
2022-10-29T16:56:09.302Z,65.05
2022-10-29T16:58:37.231Z,48.75
2022-10-29T17:01:07.935Z,50.08
2022-10-29T17:03:37.724Z,45.00
2022-10-29T17:06:08.789Z,42.23
2022-10-29T17:08:37.701Z,34.03
2022-10-29T17:11:10.092Z,29.12
2022-10-29T17:13:41.375Z,26.62
2022-10-29T17:16:15.732Z,28.12
2022-10-29T17:18:47.178Z,27.60
2022-10-29T17:21:16.076Z,26.87
2022-10-29T17:23:45.957Z,32.98
2022-10-29T17:26:14.829Z,33.58
2022-10-29T17:28:43.353Z,36.58
2022-10-29T17:31:11.310Z,38.33
2022-10-29T17:33:39.071Z,39.70
2022-10-29T17:36:11.386Z,40.88
2022-10-29T17:38:39.297Z,38.63
2022-10-29T17:41:07.255Z,39.00
2022-10-29T17:43:35.579Z,39.75
2022-10-29T17:46:04.102Z,41.48
2022-10-29T17:48:34.290Z,44.73
2022-10-29T17:51:02.989Z,47.55
2022-10-29T17:53:33.213Z,49.40
2022-10-29T17:56:01.447Z,46.70
2022-10-29T17:58:30.606Z,56.68
2022-10-29T18:01:09.098Z,50.20
2022-10-29T18:03:37.210Z,50.50
2022-10-29T18:06:08.591Z,54.33
2022-10-29T18:08:41.418Z,52.35
2022-10-29T18:11:19.602Z,50.60
2022-10-29T18:13:48.969Z,47.30
2022-10-29T18:16:20.119Z,43.80
2022-10-29T18:19:01.951Z,46.13
2022-10-29T18:21:26.123Z,43.52
2022-10-29T18:23:56.459Z,43.83
2022-10-29T18:26:30.184Z,44.93
2022-10-29T18:29:00.903Z,46.42
2022-10-29T18:31:31.102Z,45.17
2022-10-29T18:34:03.949Z,44.60
2022-10-29T18:36:32.324Z,45.48
2022-10-29T18:39:00.459Z,47.05
2022-10-29T18:41:28.147Z,48.05
2022-10-29T18:43:56.741Z,46.95
2022-10-29T18:46:25.128Z,45.17
2022-10-29T18:48:53.514Z,47.03
2022-10-29T18:51:25.532Z,51.95
2022-10-29T18:53:57.383Z,54.75
2022-10-29T18:56:27.804Z,79.37
2022-10-29T18:58:56.877Z,67.67
2022-10-29T19:01:33.446Z,49.48
2022-10-29T19:04:04.737Z,48.60
2022-10-29T19:06:36.118Z,47.33
2022-10-29T19:09:07.877Z,42.90
2022-10-29T19:11:36.286Z,42.25
2022-10-29T19:14:07.946Z,44.80
2022-10-29T19:16:35.757Z,41.70
2022-10-29T19:19:11.157Z,39.48
2022-10-29T19:24:08.140Z,42.27
2022-10-29T19:26:36.011Z,44.60
2022-10-29T19:29:05.528Z,47.62
2022-10-29T19:31:35.518Z,48.38
2022-10-29T19:34:05.716Z,48.73
2022-10-29T19:36:35.192Z,47.62
2022-10-29T19:39:04.100Z,44.00
2022-10-29T19:41:32.291Z,44.58
2022-10-29T19:44:01.903Z,42.38
2022-10-29T19:46:30.635Z,42.95
2022-10-29T19:48:58.766Z,50.00
2022-10-29T19:51:27.040Z,48.50
2022-10-29T19:53:56.685Z,46.45
2022-10-29T19:56:24.331Z,42.05
2022-10-29T19:58:51.873Z,43.05
2022-10-29T20:01:19.666Z,41.23
2022-10-29T20:03:47.944Z,39.88
2022-10-29T20:06:17.100Z,37.55
2022-10-29T20:08:44.897Z,35.60
2022-10-29T20:11:12.474Z,35.35
2022-10-29T20:13:40.445Z,34.33
2022-10-29T20:16:18.217Z,34.98
2022-10-29T20:18:46.902Z,34.50
2022-10-29T20:21:15.670Z,36.45
2022-10-29T20:23:44.531Z,34.03
2022-10-29T20:26:12.721Z,37.05
2022-10-29T20:28:41.025Z,36.17
2022-10-29T20:31:29.780Z,37.98
2022-10-29T20:33:58.474Z,39.55
2022-10-29T20:36:29.856Z,39.85
2022-10-29T20:38:58.253Z,39.80
2022-10-29T20:41:26.614Z,43.45
2022-10-29T20:43:56.812Z,44.98
2022-10-29T20:46:25.973Z,42.20
2022-10-29T20:48:53.895Z,42.80
2022-10-29T20:51:22.542Z,40.60
2022-10-29T20:53:51.940Z,40.25
2022-10-29T20:56:22.261Z,43.05
2022-10-29T20:58:49.971Z,41.28
2022-10-29T21:01:20.454Z,40.33
2022-10-29T21:03:52.049Z,40.43
2022-10-29T21:06:20.362Z,40.03
2022-10-29T21:08:50.366Z,39.30
2022-10-29T21:11:20.363Z,39.15
2022-10-29T21:13:48.565Z,41.85
2022-10-29T21:16:22.428Z,46.35
2022-10-29T21:18:54.160Z,44.88
2022-10-29T21:21:22.710Z,41.10
2022-10-29T21:23:50.840Z,41.65
2022-10-29T21:26:21.748Z,42.05
2022-10-29T21:28:50.912Z,39.85
2022-10-29T21:31:19.816Z,40.55
2022-10-29T21:33:52.472Z,40.83
2022-10-29T21:36:20.983Z,40.17
2022-10-29T21:38:48.725Z,37.25
2022-10-29T21:41:17.676Z,40.45
2022-10-29T21:43:45.599Z,39.08
2022-10-29T21:46:13.492Z,39.67
2022-10-29T21:48:41.148Z,42.73
2022-10-29T21:51:13.858Z,44.00
2022-10-29T21:53:41.783Z,45.35
2022-10-29T21:56:12.764Z,42.70
2022-10-29T21:58:40.852Z,43.80
2022-10-29T22:01:12.504Z,43.00
2022-10-29T22:03:42.963Z,37.63
2022-10-29T22:06:14.834Z,36.03
2022-10-29T22:08:43.121Z,32.90
2022-10-29T22:11:12.280Z,32.60
2022-10-29T22:13:40.035Z,31.17
2022-10-29T22:16:09.014Z,30.05
2022-10-29T22:18:37.643Z,30.15
2022-10-29T22:21:15.388Z,30.60
2022-10-29T22:23:50.322Z,33.23
2022-10-29T22:26:20.285Z,32.90
2022-10-29T22:28:48.357Z,33.20
2022-10-29T22:31:18.372Z,34.20
2022-10-29T22:33:46.624Z,31.82
2022-10-29T22:36:24.769Z,33.10
2022-10-29T22:38:55.630Z,33.05
2022-10-29T22:41:25.200Z,32.33
2022-10-29T22:43:53.544Z,32.75
2022-10-29T22:46:22.114Z,33.02
2022-10-29T22:48:49.975Z,31.73
2022-10-29T22:51:21.841Z,30.97
2022-10-29T22:53:50.879Z,32.75
2022-10-29T22:56:25.135Z,32.67
2022-10-29T22:58:53.562Z,34.08
2022-10-29T23:01:26.125Z,34.75
2022-10-29T23:03:53.985Z,35.33
2022-10-29T23:06:23.901Z,40.60
2022-10-29T23:08:53.343Z,41.15
2022-10-29T23:11:24.970Z,39.18
2022-10-29T23:13:58.253Z,37.13
2022-10-29T23:16:29.340Z,33.50
2022-10-29T23:19:01.014Z,33.00
2022-10-29T23:21:29.254Z,32.17
2022-10-29T23:23:57.118Z,31.10
2022-10-29T23:26:25.783Z,32.48
2022-10-29T23:28:53.554Z,29.05
2022-10-29T23:31:24.175Z,28.12
2022-10-29T23:33:54.553Z,29.15
2022-10-29T23:36:24.074Z,29.05
2022-10-29T23:38:59.387Z,26.77
2022-10-29T23:41:29.944Z,30.68
2022-10-29T23:43:58.036Z,27.13
2022-10-29T23:46:25.724Z,23.07
2022-10-29T23:48:53.465Z,23.80
2022-10-29T23:51:21.549Z,19.73
2022-10-29T23:53:53.152Z,19.15
2022-10-29T23:56:19.574Z,18.02
2022-10-29T23:58:47.501Z,17.65
